Terminal Aerodrome Forecast
Issued by NWS

Home | Current Version | Previous Version | Text Only | Print | Product List | Glossary On
Versions: 1 2 3 4 5 6 7 8 9 10 11 12 13 14 15 16 17 18 19
742
FTUS46 KMFR 232321
TAFRBG
TAF
KRBG 232321Z 2400/2424 VRB03KT P6SM -SHRA SCT020 OVC050
     FM240900 00000KT 1/2SM FG OVC002
     FM241600 VRB03KT 3SM BR OVC005
     FM241900 VRB03KT P6SM SCT010 SCT050=

USA.gov is the U.S. government's official web portal to all federal, state and local government web resources and services.